sensor_id;sensor_type;location;lat;lon;timestamp;P1;durP1;ratioP1;P2;durP2;ratioP2
54452;SDS011;40363;52.270;10.546;2023-07-22T00:01:16;3.60;;;2.88;;
54452;SDS011;40363;52.270;10.546;2023-07-22T00:03:43;4.00;;;2.85;;
54452;SDS011;40363;52.270;10.546;2023-07-22T00:06:10;3.97;;;2.80;;
54452;SDS011;40363;52.270;10.546;2023-07-22T00:08:36;3.45;;;2.97;;
54452;SDS011;40363;52.270;10.546;2023-07-22T00:11:04;3.42;;;2.08;;
54452;SDS011;40363;52.270;10.546;2023-07-22T00:13:32;4.03;;;2.75;;
54452;SDS011;40363;52.270;10.546;2023-07-22T00:15:59;3.88;;;2.95;;
54452;SDS011;40363;52.270;10.546;2023-07-22T00:18:27;3.50;;;2.67;;
54452;SDS011;40363;52.270;10.546;2023-07-22T00:20:54;4.80;;;3.00;;
54452;SDS011;40363;52.270;10.546;2023-07-22T00:23:21;5.78;;;3.20;;
54452;SDS011;40363;52.270;10.546;2023-07-22T00:25:47;4.22;;;3.20;;
54452;SDS011;40363;52.270;10.546;2023-07-22T00:28:14;5.20;;;3.15;;
54452;SDS011;40363;52.270;10.546;2023-07-22T00:30:43;5.03;;;3.13;;
54452;SDS011;40363;52.270;10.546;2023-07-22T00:33:09;8.88;;;3.75;;
54452;SDS011;40363;52.270;10.546;2023-07-22T00:35:36;5.95;;;3.30;;
54452;SDS011;40363;52.270;10.546;2023-07-22T00:38:02;6.28;;;3.70;;
54452;SDS011;40363;52.270;10.546;2023-07-22T00:40:29;6.07;;;3.97;;
54452;SDS011;40363;52.270;10.546;2023-07-22T00:42:57;5.72;;;3.47;;
54452;SDS011;40363;52.270;10.546;2023-07-22T00:45:24;5.80;;;3.33;;
54452;SDS011;40363;52.270;10.546;2023-07-22T00:47:52;8.00;;;3.53;;
54452;SDS011;40363;52.270;10.546;2023-07-22T00:50:19;5.22;;;3.47;;
54452;SDS011;40363;52.270;10.546;2023-07-22T00:52:45;5.60;;;3.70;;
54452;SDS011;40363;52.270;10.546;2023-07-22T00:55:12;7.43;;;4.25;;
54452;SDS011;40363;52.270;10.546;2023-07-22T00:57:39;7.53;;;4.25;;
54452;SDS011;40363;52.270;10.546;2023-07-22T01:00:06;7.22;;;4.50;;
54452;SDS011;40363;52.270;10.546;2023-07-22T01:02:36;6.03;;;4.03;;
54452;SDS011;40363;52.270;10.546;2023-07-22T01:05:05;6.03;;;3.55;;
54452;SDS011;40363;52.270;10.546;2023-07-22T01:07:32;8.07;;;4.25;;
54452;SDS011;40363;52.270;10.546;2023-07-22T01:09:59;6.60;;;3.92;;
54452;SDS011;40363;52.270;10.546;2023-07-22T01:12:25;7.88;;;4.60;;
54452;SDS011;40363;52.270;10.546;2023-07-22T01:14:52;8.18;;;4.63;;
54452;SDS011;40363;52.270;10.546;2023-07-22T01:17:19;8.70;;;4.60;;
54452;SDS011;40363;52.270;10.546;2023-07-22T01:19:46;7.35;;;4.95;;
54452;SDS011;40363;52.270;10.546;2023-07-22T01:22:14;5.45;;;3.72;;
54452;SDS011;40363;52.270;10.546;2023-07-22T01:24:44;7.18;;;4.30;;
54452;SDS011;40363;52.270;10.546;2023-07-22T01:27:11;7.63;;;4.05;;
54452;SDS011;40363;52.270;10.546;2023-07-22T01:29:39;8.20;;;4.50;;
54452;SDS011;40363;52.270;10.546;2023-07-22T01:32:06;9.93;;;5.38;;
54452;SDS011;40363;52.270;10.546;2023-07-22T01:34:33;9.25;;;5.07;;
54452;SDS011;40363;52.270;10.546;2023-07-22T01:36:59;7.25;;;3.80;;
54452;SDS011;40363;52.270;10.546;2023-07-22T01:39:26;12.20;;;5.25;;
54452;SDS011;40363;52.270;10.546;2023-07-22T01:41:54;8.23;;;4.53;;
54452;SDS011;40363;52.270;10.546;2023-07-22T01:44:21;10.80;;;5.07;;
54452;SDS011;40363;52.270;10.546;2023-07-22T01:46:47;8.70;;;5.13;;
54452;SDS011;40363;52.270;10.546;2023-07-22T01:49:14;9.13;;;4.72;;
54452;SDS011;40363;52.270;10.546;2023-07-22T01:51:41;8.85;;;4.80;;
54452;SDS011;40363;52.270;10.546;2023-07-22T01:54:08;8.18;;;5.07;;
54452;SDS011;40363;52.270;10.546;2023-07-22T01:56:35;7.53;;;4.70;;
54452;SDS011;40363;52.270;10.546;2023-07-22T01:59:03;6.93;;;4.65;;
54452;SDS011;40363;52.270;10.546;2023-07-22T02:01:30;11.05;;;4.38;;
54452;SDS011;40363;52.270;10.546;2023-07-22T02:03:56;8.15;;;4.63;;
54452;SDS011;40363;52.270;10.546;2023-07-22T02:06:23;8.68;;;5.25;;
54452;SDS011;40363;52.270;10.546;2023-07-22T02:08:49;8.18;;;5.15;;
54452;SDS011;40363;52.270;10.546;2023-07-22T02:11:16;7.93;;;4.50;;
54452;SDS011;40363;52.270;10.546;2023-07-22T02:13:43;13.10;;;6.07;;
54452;SDS011;40363;52.270;10.546;2023-07-22T02:16:11;8.55;;;4.85;;
54452;SDS011;40363;52.270;10.546;2023-07-22T02:18:38;10.23;;;5.80;;
54452;SDS011;40363;52.270;10.546;2023-07-22T02:21:04;11.23;;;5.22;;
54452;SDS011;40363;52.270;10.546;2023-07-22T02:23:31;9.15;;;5.00;;
54452;SDS011;40363;52.270;10.546;2023-07-22T02:25:57;10.43;;;5.32;;
54452;SDS011;40363;52.270;10.546;2023-07-22T02:28:24;12.00;;;5.88;;
54452;SDS011;40363;52.270;10.546;2023-07-22T02:30:51;10.23;;;5.40;;
54452;SDS011;40363;52.270;10.546;2023-07-22T02:33:20;11.75;;;6.22;;
54452;SDS011;40363;52.270;10.546;2023-07-22T02:35:47;8.75;;;5.15;;
54452;SDS011;40363;52.270;10.546;2023-07-22T02:38:15;9.95;;;5.00;;
54452;SDS011;40363;52.270;10.546;2023-07-22T02:40:41;10.48;;;5.97;;
54452;SDS011;40363;52.270;10.546;2023-07-22T02:43:08;9.75;;;5.05;;
54452;SDS011;40363;52.270;10.546;2023-07-22T02:45:36;9.77;;;5.45;;
54452;SDS011;40363;52.270;10.546;2023-07-22T02:48:03;13.05;;;5.82;;
54452;SDS011;40363;52.270;10.546;2023-07-22T02:50:31;10.50;;;5.78;;
54452;SDS011;40363;52.270;10.546;2023-07-22T02:52:58;10.90;;;5.35;;
54452;SDS011;40363;52.270;10.546;2023-07-22T02:55:25;10.98;;;5.43;;
54452;SDS011;40363;52.270;10.546;2023-07-22T02:57:52;10.63;;;6.80;;
54452;SDS011;40363;52.270;10.546;2023-07-22T03:00:19;9.27;;;5.40;;
54452;SDS011;40363;52.270;10.546;2023-07-22T03:02:48;9.48;;;5.47;;
54452;SDS011;40363;52.270;10.546;2023-07-22T03:05:16;10.77;;;4.95;;
54452;SDS011;40363;52.270;10.546;2023-07-22T03:07:44;9.82;;;5.15;;
54452;SDS011;40363;52.270;10.546;2023-07-22T03:10:10;15.90;;;5.93;;
54452;SDS011;40363;52.270;10.546;2023-07-22T03:12:37;9.73;;;4.93;;
54452;SDS011;40363;52.270;10.546;2023-07-22T03:15:05;9.35;;;4.88;;
54452;SDS011;40363;52.270;10.546;2023-07-22T03:17:33;10.57;;;5.28;;
54452;SDS011;40363;52.270;10.546;2023-07-22T03:20:00;8.52;;;4.57;;
54452;SDS011;40363;52.270;10.546;2023-07-22T03:22:27;9.32;;;4.55;;
54452;SDS011;40363;52.270;10.546;2023-07-22T03:24:55;7.22;;;4.28;;
54452;SDS011;40363;52.270;10.546;2023-07-22T03:27:22;7.95;;;4.50;;
54452;SDS011;40363;52.270;10.546;2023-07-22T03:29:48;9.30;;;4.57;;
54452;SDS011;40363;52.270;10.546;2023-07-22T03:32:15;7.93;;;5.03;;
54452;SDS011;40363;52.270;10.546;2023-07-22T03:34:41;7.93;;;3.95;;
54452;SDS011;40363;52.270;10.546;2023-07-22T03:37:08;10.70;;;4.82;;
54452;SDS011;40363;52.270;10.546;2023-07-22T03:39:35;8.32;;;4.70;;
54452;SDS011;40363;52.270;10.546;2023-07-22T03:42:03;8.40;;;4.43;;
54452;SDS011;40363;52.270;10.546;2023-07-22T03:44:31;9.13;;;4.07;;
54452;SDS011;40363;52.270;10.546;2023-07-22T03:46:57;12.73;;;5.30;;
54452;SDS011;40363;52.270;10.546;2023-07-22T03:49:25;8.18;;;4.00;;
54452;SDS011;40363;52.270;10.546;2023-07-22T03:51:52;10.25;;;4.72;;
54452;SDS011;40363;52.270;10.546;2023-07-22T03:54:18;9.25;;;4.28;;
54452;SDS011;40363;52.270;10.546;2023-07-22T03:56:45;9.38;;;5.00;;
54452;SDS011;40363;52.270;10.546;2023-07-22T03:59:13;8.05;;;3.67;;
54452;SDS011;40363;52.270;10.546;2023-07-22T04:01:39;9.32;;;4.38;;
54452;SDS011;40363;52.270;10.546;2023-07-22T04:04:06;8.55;;;3.88;;
54452;SDS011;40363;52.270;10.546;2023-07-22T04:06:33;6.90;;;4.25;;
54452;SDS011;40363;52.270;10.546;2023-07-22T04:08:59;6.38;;;3.95;;
54452;SDS011;40363;52.270;10.546;2023-07-22T04:11:26;10.13;;;4.40;;
54452;SDS011;40363;52.270;10.546;2023-07-22T04:13:53;8.55;;;3.92;;
54452;SDS011;40363;52.270;10.546;2023-07-22T04:16:21;8.73;;;4.13;;
54452;SDS011;40363;52.270;10.546;2023-07-22T04:18:47;8.88;;;3.78;;
54452;SDS011;40363;52.270;10.546;2023-07-22T04:21:14;8.52;;;4.25;;
54452;SDS011;40363;52.270;10.546;2023-07-22T04:23:40;9.90;;;4.55;;
54452;SDS011;40363;52.270;10.546;2023-07-22T04:26:07;6.78;;;3.75;;
54452;SDS011;40363;52.270;10.546;2023-07-22T04:28:33;10.70;;;4.28;;
54452;SDS011;40363;52.270;10.546;2023-07-22T04:31:00;11.68;;;4.55;;
54452;SDS011;40363;52.270;10.546;2023-07-22T04:33:28;8.25;;;4.57;;
54452;SDS011;40363;52.270;10.546;2023-07-22T04:35:55;7.50;;;4.32;;
54452;SDS011;40363;52.270;10.546;2023-07-22T04:38:23;7.05;;;4.20;;
54452;SDS011;40363;52.270;10.546;2023-07-22T04:40:50;7.70;;;4.43;;
54452;SDS011;40363;52.270;10.546;2023-07-22T04:43:16;8.65;;;4.68;;
54452;SDS011;40363;52.270;10.546;2023-07-22T04:45:44;10.20;;;3.75;;
54452;SDS011;40363;52.270;10.546;2023-07-22T04:48:12;7.90;;;4.00;;
54452;SDS011;40363;52.270;10.546;2023-07-22T04:50:41;6.78;;;2.95;;
54452;SDS011;40363;52.270;10.546;2023-07-22T04:53:10;6.60;;;3.65;;
54452;SDS011;40363;52.270;10.546;2023-07-22T04:55:38;6.70;;;3.63;;
54452;SDS011;40363;52.270;10.546;2023-07-22T04:58:04;6.72;;;3.63;;
54452;SDS011;40363;52.270;10.546;2023-07-22T05:00:31;8.18;;;3.67;;
54452;SDS011;40363;52.270;10.546;2023-07-22T05:02:58;7.93;;;3.88;;
54452;SDS011;40363;52.270;10.546;2023-07-22T05:05:25;10.55;;;3.83;;
54452;SDS011;40363;52.270;10.546;2023-07-22T05:07:53;6.50;;;4.00;;
54452;SDS011;40363;52.270;10.546;2023-07-22T05:10:20;7.35;;;4.20;;
54452;SDS011;40363;52.270;10.546;2023-07-22T05:12:46;7.97;;;3.30;;
54452;SDS011;40363;52.270;10.546;2023-07-22T05:15:13;9.18;;;3.92;;
54452;SDS011;40363;52.270;10.546;2023-07-22T05:17:40;6.65;;;3.53;;
54452;SDS011;40363;52.270;10.546;2023-07-22T05:20:07;8.07;;;3.72;;
54452;SDS011;40363;52.270;10.546;2023-07-22T05:22:35;7.03;;;3.92;;
54452;SDS011;40363;52.270;10.546;2023-07-22T05:25:04;9.18;;;4.03;;
54452;SDS011;40363;52.270;10.546;2023-07-22T05:27:31;11.57;;;5.10;;
54452;SDS011;40363;52.270;10.546;2023-07-22T05:29:58;6.60;;;3.72;;
54452;SDS011;40363;52.270;10.546;2023-07-22T05:32:26;9.02;;;4.30;;
54452;SDS011;40363;52.270;10.546;2023-07-22T05:34:54;10.05;;;4.00;;
54452;SDS011;40363;52.270;10.546;2023-07-22T05:37:21;8.00;;;3.28;;
54452;SDS011;40363;52.270;10.546;2023-07-22T05:39:48;8.05;;;3.58;;
54452;SDS011;40363;52.270;10.546;2023-07-22T05:42:16;6.28;;;3.38;;
54452;SDS011;40363;52.270;10.546;2023-07-22T05:44:42;9.63;;;3.90;;
54452;SDS011;40363;52.270;10.546;2023-07-22T05:47:09;7.35;;;3.25;;
54452;SDS011;40363;52.270;10.546;2023-07-22T05:49:35;5.57;;;3.15;;
54452;SDS011;40363;52.270;10.546;2023-07-22T05:52:02;7.97;;;3.75;;
54452;SDS011;40363;52.270;10.546;2023-07-22T05:54:29;6.78;;;3.63;;
54452;SDS011;40363;52.270;10.546;2023-07-22T05:56:55;6.93;;;3.63;;
54452;SDS011;40363;52.270;10.546;2023-07-22T05:59:23;10.30;;;3.50;;
54452;SDS011;40363;52.270;10.546;2023-07-22T06:01:50;6.82;;;3.78;;
54452;SDS011;40363;52.270;10.546;2023-07-22T06:04:16;6.50;;;3.65;;
54452;SDS011;40363;52.270;10.546;2023-07-22T06:06:43;6.35;;;3.80;;
54452;SDS011;40363;52.270;10.546;2023-07-22T06:09:10;7.95;;;3.65;;
54452;SDS011;40363;52.270;10.546;2023-07-22T06:11:37;7.28;;;4.47;;
54452;SDS011;40363;52.270;10.546;2023-07-22T06:14:03;9.10;;;4.05;;
54452;SDS011;40363;52.270;10.546;2023-07-22T06:16:31;6.97;;;3.72;;
54452;SDS011;40363;52.270;10.546;2023-07-22T06:18:57;6.38;;;3.50;;
54452;SDS011;40363;52.270;10.546;2023-07-22T06:21:24;9.02;;;3.95;;
54452;SDS011;40363;52.270;10.546;2023-07-22T06:23:50;6.40;;;3.35;;
54452;SDS011;40363;52.270;10.546;2023-07-22T06:26:17;12.38;;;4.15;;
54452;SDS011;40363;52.270;10.546;2023-07-22T06:28:43;5.80;;;3.80;;
54452;SDS011;40363;52.270;10.546;2023-07-22T06:31:10;7.82;;;3.45;;
54452;SDS011;40363;52.270;10.546;2023-07-22T06:33:38;8.93;;;3.42;;
54452;SDS011;40363;52.270;10.546;2023-07-22T06:36:05;6.47;;;3.78;;
54452;SDS011;40363;52.270;10.546;2023-07-22T06:38:31;7.45;;;4.13;;
54452;SDS011;40363;52.270;10.546;2023-07-22T06:40:58;9.60;;;4.10;;
54452;SDS011;40363;52.270;10.546;2023-07-22T06:43:24;7.85;;;3.88;;
54452;SDS011;40363;52.270;10.546;2023-07-22T06:45:51;7.68;;;4.55;;
54452;SDS011;40363;52.270;10.546;2023-07-22T06:48:17;7.90;;;3.40;;
54452;SDS011;40363;52.270;10.546;2023-07-22T06:50:48;9.73;;;4.03;;
54452;SDS011;40363;52.270;10.546;2023-07-22T06:53:14;6.85;;;3.40;;
54452;SDS011;40363;52.270;10.546;2023-07-22T06:55:47;7.43;;;3.88;;
54452;SDS011;40363;52.270;10.546;2023-07-22T06:58:15;8.95;;;3.45;;
54452;SDS011;40363;52.270;10.546;2023-07-22T07:00:41;9.32;;;3.97;;
54452;SDS011;40363;52.270;10.546;2023-07-22T07:03:08;6.90;;;3.65;;
54452;SDS011;40363;52.270;10.546;2023-07-22T07:05:35;8.60;;;4.18;;
54452;SDS011;40363;52.270;10.546;2023-07-22T07:08:03;9.35;;;3.50;;
54452;SDS011;40363;52.270;10.546;2023-07-22T07:10:30;6.30;;;3.80;;
54452;SDS011;40363;52.270;10.546;2023-07-22T07:13:02;6.20;;;3.78;;
54452;SDS011;40363;52.270;10.546;2023-07-22T07:15:28;6.55;;;3.67;;
54452;SDS011;40363;52.270;10.546;2023-07-22T07:17:55;6.10;;;3.35;;
54452;SDS011;40363;52.270;10.546;2023-07-22T07:20:21;7.57;;;4.00;;
54452;SDS011;40363;52.270;10.546;2023-07-22T07:22:48;8.88;;;3.65;;
54452;SDS011;40363;52.270;10.546;2023-07-22T07:25:16;4.82;;;3.08;;
54452;SDS011;40363;52.270;10.546;2023-07-22T07:27:42;5.55;;;3.03;;
54452;SDS011;40363;52.270;10.546;2023-07-22T07:30:09;7.78;;;3.67;;
54452;SDS011;40363;52.270;10.546;2023-07-22T07:32:36;6.13;;;3.38;;
54452;SDS011;40363;52.270;10.546;2023-07-22T07:35:03;9.27;;;4.10;;
54452;SDS011;40363;52.270;10.546;2023-07-22T07:37:31;7.47;;;3.22;;
54452;SDS011;40363;52.270;10.546;2023-07-22T07:39:58;5.90;;;2.95;;
54452;SDS011;40363;52.270;10.546;2023-07-22T07:42:26;5.45;;;3.08;;
54452;SDS011;40363;52.270;10.546;2023-07-22T07:44:52;6.20;;;3.25;;
54452;SDS011;40363;52.270;10.546;2023-07-22T07:47:19;7.65;;;3.45;;
54452;SDS011;40363;52.270;10.546;2023-07-22T07:49:45;6.18;;;3.75;;
54452;SDS011;40363;52.270;10.546;2023-07-22T07:52:12;6.80;;;3.30;;
54452;SDS011;40363;52.270;10.546;2023-07-22T07:54:38;5.15;;;2.85;;
54452;SDS011;40363;52.270;10.546;2023-07-22T07:57:05;9.68;;;3.80;;
54452;SDS011;40363;52.270;10.546;2023-07-22T07:59:33;6.47;;;3.60;;
54452;SDS011;40363;52.270;10.546;2023-07-22T08:02:01;9.18;;;4.20;;
54452;SDS011;40363;52.270;10.546;2023-07-22T08:04:29;7.00;;;4.00;;
54452;SDS011;40363;52.270;10.546;2023-07-22T08:06:56;6.95;;;4.07;;
54452;SDS011;40363;52.270;10.546;2023-07-22T08:09:22;8.30;;;4.22;;
54452;SDS011;40363;52.270;10.546;2023-07-22T08:11:49;7.93;;;3.95;;
54452;SDS011;40363;52.270;10.546;2023-07-22T08:14:15;6.38;;;3.70;;
54452;SDS011;40363;52.270;10.546;2023-07-22T08:16:44;6.60;;;4.20;;
54452;SDS011;40363;52.270;10.546;2023-07-22T08:19:11;6.93;;;3.67;;
54452;SDS011;40363;52.270;10.546;2023-07-22T08:21:38;6.13;;;3.97;;
54452;SDS011;40363;52.270;10.546;2023-07-22T08:24:04;7.18;;;4.00;;
54452;SDS011;40363;52.270;10.546;2023-07-22T08:26:32;5.78;;;4.07;;
54452;SDS011;40363;52.270;10.546;2023-07-22T08:28:58;5.82;;;3.42;;
54452;SDS011;40363;52.270;10.546;2023-07-22T08:31:25;7.82;;;3.80;;
54452;SDS011;40363;52.270;10.546;2023-07-22T08:33:53;9.30;;;3.65;;
54452;SDS011;40363;52.270;10.546;2023-07-22T08:36:20;6.15;;;3.67;;
54452;SDS011;40363;52.270;10.546;2023-07-22T08:38:46;7.20;;;4.18;;
54452;SDS011;40363;52.270;10.546;2023-07-22T08:41:14;6.32;;;3.58;;
54452;SDS011;40363;52.270;10.546;2023-07-22T08:43:41;9.00;;;4.00;;
54452;SDS011;40363;52.270;10.546;2023-07-22T08:46:12;9.65;;;4.03;;
54452;SDS011;40363;52.270;10.546;2023-07-22T08:48:38;6.32;;;4.13;;
54452;SDS011;40363;52.270;10.546;2023-07-22T08:51:10;6.90;;;4.70;;
54452;SDS011;40363;52.270;10.546;2023-07-22T08:53:41;7.10;;;4.03;;
54452;SDS011;40363;52.270;10.546;2023-07-22T08:56:09;5.53;;;3.20;;
54452;SDS011;40363;52.270;10.546;2023-07-22T08:58:36;6.65;;;3.60;;
54452;SDS011;40363;52.270;10.546;2023-07-22T09:01:04;6.38;;;3.95;;
54452;SDS011;40363;52.270;10.546;2023-07-22T09:03:31;5.75;;;3.33;;
54452;SDS011;40363;52.270;10.546;2023-07-22T09:05:58;4.55;;;3.20;;
54452;SDS011;40363;52.270;10.546;2023-07-22T09:08:27;7.13;;;3.63;;
54452;SDS011;40363;52.270;10.546;2023-07-22T09:10:53;5.07;;;3.38;;
54452;SDS011;40363;52.270;10.546;2023-07-22T09:13:20;6.95;;;4.13;;
54452;SDS011;40363;52.270;10.546;2023-07-22T09:15:48;5.20;;;3.40;;
54452;SDS011;40363;52.270;10.546;2023-07-22T09:18:15;7.10;;;4.60;;
54452;SDS011;40363;52.270;10.546;2023-07-22T09:20:42;8.50;;;4.93;;
54452;SDS011;40363;52.270;10.546;2023-07-22T09:23:09;7.63;;;4.88;;
54452;SDS011;40363;52.270;10.546;2023-07-22T09:25:37;9.75;;;5.38;;
54452;SDS011;40363;52.270;10.546;2023-07-22T09:28:03;6.95;;;4.20;;
54452;SDS011;40363;52.270;10.546;2023-07-22T09:30:30;7.68;;;4.47;;
54452;SDS011;40363;52.270;10.546;2023-07-22T09:33:00;7.75;;;4.80;;
54452;SDS011;40363;52.270;10.546;2023-07-22T09:35:28;8.27;;;5.57;;
54452;SDS011;40363;52.270;10.546;2023-07-22T09:37:55;6.93;;;4.78;;
54452;SDS011;40363;52.270;10.546;2023-07-22T09:40:23;9.02;;;4.90;;
54452;SDS011;40363;52.270;10.546;2023-07-22T09:42:53;10.73;;;5.47;;
54452;SDS011;40363;52.270;10.546;2023-07-22T09:45:21;10.13;;;5.30;;
54452;SDS011;40363;52.270;10.546;2023-07-22T09:47:49;9.52;;;5.63;;
54452;SDS011;40363;52.270;10.546;2023-07-22T09:50:18;8.13;;;4.90;;
54452;SDS011;40363;52.270;10.546;2023-07-22T09:52:47;8.18;;;5.38;;
54452;SDS011;40363;52.270;10.546;2023-07-22T09:55:15;12.02;;;6.47;;
54452;SDS011;40363;52.270;10.546;2023-07-22T09:57:44;9.23;;;5.65;;
54452;SDS011;40363;52.270;10.546;2023-07-22T10:00:14;8.77;;;5.93;;
54452;SDS011;40363;52.270;10.546;2023-07-22T10:02:42;9.13;;;5.60;;
54452;SDS011;40363;52.270;10.546;2023-07-22T10:05:13;7.22;;;5.30;;
54452;SDS011;40363;52.270;10.546;2023-07-22T10:07:45;8.10;;;5.22;;
54452;SDS011;40363;52.270;10.546;2023-07-22T10:10:14;10.23;;;5.65;;
54452;SDS011;40363;52.270;10.546;2023-07-22T10:12:42;7.25;;;4.63;;
54452;SDS011;40363;52.270;10.546;2023-07-22T10:15:09;7.63;;;4.25;;
54452;SDS011;40363;52.270;10.546;2023-07-22T10:17:37;8.50;;;5.03;;
54452;SDS011;40363;52.270;10.546;2023-07-22T10:20:05;8.02;;;4.47;;
54452;SDS011;40363;52.270;10.546;2023-07-22T10:22:35;8.85;;;5.70;;
54452;SDS011;40363;52.270;10.546;2023-07-22T10:25:04;6.55;;;4.78;;
54452;SDS011;40363;52.270;10.546;2023-07-22T10:27:32;7.75;;;5.18;;
54452;SDS011;40363;52.270;10.546;2023-07-22T10:30:00;6.38;;;4.20;;
54452;SDS011;40363;52.270;10.546;2023-07-22T10:32:31;7.35;;;4.10;;
54452;SDS011;40363;52.270;10.546;2023-07-22T10:35:00;6.05;;;4.30;;
54452;SDS011;40363;52.270;10.546;2023-07-22T10:37:29;6.13;;;3.97;;
54452;SDS011;40363;52.270;10.546;2023-07-22T10:39:58;6.72;;;4.03;;
54452;SDS011;40363;52.270;10.546;2023-07-22T10:42:25;9.63;;;4.38;;
54452;SDS011;40363;52.270;10.546;2023-07-22T10:44:52;5.85;;;3.58;;
54452;SDS011;40363;52.270;10.546;2023-07-22T10:47:31;5.78;;;3.80;;
54452;SDS011;40363;52.270;10.546;2023-07-22T10:50:06;8.15;;;3.75;;
54452;SDS011;40363;52.270;10.546;2023-07-22T10:52:38;6.13;;;3.47;;
54452;SDS011;40363;52.270;10.546;2023-07-22T10:55:13;7.20;;;3.88;;
54452;SDS011;40363;52.270;10.546;2023-07-22T10:57:47;6.70;;;4.00;;
54452;SDS011;40363;52.270;10.546;2023-07-22T11:00:18;5.82;;;3.55;;
54452;SDS011;40363;52.270;10.546;2023-07-22T11:02:47;4.75;;;3.55;;
54452;SDS011;40363;52.270;10.546;2023-07-22T11:05:48;6.57;;;3.90;;
54452;SDS011;40363;52.270;10.546;2023-07-22T11:08:15;5.97;;;5.32;;
54452;SDS011;40363;52.270;10.546;2023-07-22T11:13:27;6.93;;;3.60;;
54452;SDS011;40363;52.270;10.546;2023-07-22T11:15:57;5.10;;;3.45;;
54452;SDS011;40363;52.270;10.546;2023-07-22T11:18:35;5.22;;;2.97;;
54452;SDS011;40363;52.270;10.546;2023-07-22T11:21:03;6.55;;;3.65;;
54452;SDS011;40363;52.270;10.546;2023-07-22T11:23:33;4.78;;;2.88;;
54452;SDS011;40363;52.270;10.546;2023-07-22T11:26:01;4.63;;;2.97;;
54452;SDS011;40363;52.270;10.546;2023-07-22T11:28:28;5.40;;;2.88;;
54452;SDS011;40363;52.270;10.546;2023-07-22T11:30:54;5.30;;;2.75;;
54452;SDS011;40363;52.270;10.546;2023-07-22T11:33:21;4.32;;;2.97;;
54452;SDS011;40363;52.270;10.546;2023-07-22T11:35:48;3.65;;;3.08;;
54452;SDS011;40363;52.270;10.546;2023-07-22T11:38:15;4.32;;;2.72;;
54452;SDS011;40363;52.270;10.546;2023-07-22T11:40:42;5.53;;;3.60;;
54452;SDS011;40363;52.270;10.546;2023-07-22T11:43:09;5.82;;;3.20;;
54452;SDS011;40363;52.270;10.546;2023-07-22T11:45:37;3.03;;;2.42;;
54452;SDS011;40363;52.270;10.546;2023-07-22T11:48:08;4.07;;;2.83;;
54452;SDS011;40363;52.270;10.546;2023-07-22T11:50:35;3.47;;;2.42;;
54452;SDS011;40363;52.270;10.546;2023-07-22T11:53:02;6.68;;;2.97;;
54452;SDS011;40363;52.270;10.546;2023-07-22T11:55:30;4.57;;;2.45;;
54452;SDS011;40363;52.270;10.546;2023-07-22T11:58:00;6.13;;;2.85;;
54452;SDS011;40363;52.270;10.546;2023-07-22T12:00:28;5.35;;;3.03;;
54452;SDS011;40363;52.270;10.546;2023-07-22T12:02:55;6.78;;;3.05;;
54452;SDS011;40363;52.270;10.546;2023-07-22T12:05:22;5.03;;;2.78;;
54452;SDS011;40363;52.270;10.546;2023-07-22T12:07:49;5.55;;;2.88;;
54452;SDS011;40363;52.270;10.546;2023-07-22T12:10:15;4.78;;;2.72;;
54452;SDS011;40363;52.270;10.546;2023-07-22T12:12:44;5.55;;;3.05;;
54452;SDS011;40363;52.270;10.546;2023-07-22T12:15:14;5.68;;;3.28;;
54452;SDS011;40363;52.270;10.546;2023-07-22T12:17:46;8.65;;;2.90;;
54452;SDS011;40363;52.270;10.546;2023-07-22T12:20:14;5.68;;;2.60;;
54452;SDS011;40363;52.270;10.546;2023-07-22T12:22:41;5.55;;;3.17;;
54452;SDS011;40363;52.270;10.546;2023-07-22T12:25:07;5.13;;;2.85;;
54452;SDS011;40363;52.270;10.546;2023-07-22T12:27:35;5.03;;;3.42;;
54452;SDS011;40363;52.270;10.546;2023-07-22T12:30:05;4.45;;;3.17;;
54452;SDS011;40363;52.270;10.546;2023-07-22T12:32:34;6.10;;;2.92;;
54452;SDS011;40363;52.270;10.546;2023-07-22T12:35:01;5.65;;;3.28;;
54452;SDS011;40363;52.270;10.546;2023-07-22T12:37:28;4.85;;;3.20;;
54452;SDS011;40363;52.270;10.546;2023-07-22T12:39:55;4.90;;;2.92;;
54452;SDS011;40363;52.270;10.546;2023-07-22T12:42:22;4.20;;;3.35;;
54452;SDS011;40363;52.270;10.546;2023-07-22T12:44:49;5.15;;;3.00;;
54452;SDS011;40363;52.270;10.546;2023-07-22T12:47:17;4.57;;;3.05;;
54452;SDS011;40363;52.270;10.546;2023-07-22T12:49:44;4.80;;;2.97;;
54452;SDS011;40363;52.270;10.546;2023-07-22T12:52:10;5.35;;;3.58;;
54452;SDS011;40363;52.270;10.546;2023-07-22T12:54:38;4.63;;;2.63;;
54452;SDS011;40363;52.270;10.546;2023-07-22T12:57:05;5.38;;;2.90;;
54452;SDS011;40363;52.270;10.546;2023-07-22T12:59:31;5.18;;;2.80;;
54452;SDS011;40363;52.270;10.546;2023-07-22T13:01:58;8.88;;;2.83;;
54452;SDS011;40363;52.270;10.546;2023-07-22T13:04:26;4.35;;;2.63;;
54452;SDS011;40363;52.270;10.546;2023-07-22T13:06:52;4.10;;;2.92;;
54452;SDS011;40363;52.270;10.546;2023-07-22T13:09:19;5.50;;;2.95;;
54452;SDS011;40363;52.270;10.546;2023-07-22T13:11:46;7.40;;;3.33;;
54452;SDS011;40363;52.270;10.546;2023-07-22T13:14:13;3.70;;;2.53;;
54452;SDS011;40363;52.270;10.546;2023-07-22T13:16:40;5.97;;;2.80;;
54452;SDS011;40363;52.270;10.546;2023-07-22T13:19:06;5.75;;;2.90;;
54452;SDS011;40363;52.270;10.546;2023-07-22T13:21:35;4.60;;;2.92;;
54452;SDS011;40363;52.270;10.546;2023-07-22T13:24:02;25.50;;;9.95;;
54452;SDS011;40363;52.270;10.546;2023-07-22T13:26:29;6.18;;;3.70;;
54452;SDS011;40363;52.270;10.546;2023-07-22T13:28:55;7.45;;;3.78;;
54452;SDS011;40363;52.270;10.546;2023-07-22T13:31:22;6.50;;;3.75;;
54452;SDS011;40363;52.270;10.546;2023-07-22T13:33:48;6.60;;;3.35;;
54452;SDS011;40363;52.270;10.546;2023-07-22T13:36:15;7.53;;;4.15;;
54452;SDS011;40363;52.270;10.546;2023-07-22T13:38:43;5.45;;;3.60;;
54452;SDS011;40363;52.270;10.546;2023-07-22T13:41:09;7.90;;;3.92;;
54452;SDS011;40363;52.270;10.546;2023-07-22T13:43:36;6.05;;;3.40;;
54452;SDS011;40363;52.270;10.546;2023-07-22T13:46:02;5.22;;;3.83;;
54452;SDS011;40363;52.270;10.546;2023-07-22T13:48:29;7.13;;;4.35;;
54452;SDS011;40363;52.270;10.546;2023-07-22T13:50:55;7.50;;;3.92;;
54452;SDS011;40363;52.270;10.546;2023-07-22T13:53:22;7.88;;;4.22;;
54452;SDS011;40363;52.270;10.546;2023-07-22T13:55:52;6.03;;;4.00;;
54452;SDS011;40363;52.270;10.546;2023-07-22T13:58:18;7.82;;;3.33;;
54452;SDS011;40363;52.270;10.546;2023-07-22T14:00:45;7.00;;;3.90;;
54452;SDS011;40363;52.270;10.546;2023-07-22T14:03:13;9.38;;;4.50;;
54452;SDS011;40363;52.270;10.546;2023-07-22T14:05:40;5.88;;;3.92;;
54452;SDS011;40363;52.270;10.546;2023-07-22T14:08:06;8.43;;;3.97;;
54452;SDS011;40363;52.270;10.546;2023-07-22T14:10:33;8.95;;;4.47;;
54452;SDS011;40363;52.270;10.546;2023-07-22T14:13:01;6.30;;;4.57;;
54452;SDS011;40363;52.270;10.546;2023-07-22T14:15:27;7.15;;;4.43;;
54452;SDS011;40363;52.270;10.546;2023-07-22T14:17:54;8.30;;;4.30;;
54452;SDS011;40363;52.270;10.546;2023-07-22T14:20:20;9.80;;;4.68;;
54452;SDS011;40363;52.270;10.546;2023-07-22T14:22:47;8.23;;;4.82;;
54452;SDS011;40363;52.270;10.546;2023-07-22T14:25:14;8.07;;;4.57;;
54452;SDS011;40363;52.270;10.546;2023-07-22T14:27:41;9.93;;;4.70;;
54452;SDS011;40363;52.270;10.546;2023-07-22T14:30:11;6.28;;;4.30;;
54452;SDS011;40363;52.270;10.546;2023-07-22T14:32:37;6.18;;;4.55;;
54452;SDS011;40363;52.270;10.546;2023-07-22T14:35:04;6.30;;;4.07;;
54452;SDS011;40363;52.270;10.546;2023-07-22T14:37:31;5.93;;;4.15;;